Pagrindinis puslapis
METAR-TAF:

METAR-TAF

Oro uostai :

Orange County Airport

Montgomery, Niujorko valstija, Jungtinės Amerikos Valstijos

platuma: 41-30-33N, ilguma: 074-15-54W, Aukštis: 111 m

Dabartinis oras

Ataskaita buvo paskelbta 41 minutes, ne 05:54 UTC
Vėjas 9 kt iš Vakarų su gūsio iki 22 kt
Temperatūra -3°C
Drėgmė 54%
Slėgis 1007 hPa
Matomumas: 16.1 km
Su prošvaistėmis ne aukštis 4900 ft
Apsiniaukę ne aukštis 6500 ft

METAR: KMGJ 280554Z AUTO 27009G22KT 10SM BKN049 OVC065 M03/M11 A2975 RMK AO2 SLP077 60000 T10281111 11011 21028 53004

Laikas: 01:35 (06:35 UTC)


TAF: trūkstamas

Orai ataskaitas ir orų prognozės (METAR, TAF).

turimą stotys yra geltonos ir raudonos taškus žemėlapyje.

Perkelti pele per norėdami pamatyti stoties vardą.

Tada spustelėkite, norėdami matyti oro stebėjimo ir prognozės.

Norėdami pakeisti žemėlapį: spustelėkite ant žalios mygtukų su juodo kryžiaus žemyn,; žalią mygtuką su brūkšneliu, jei norite nutolinti; arba žalių rodyklių gretimoms žemėlapius.


METAR-TAF: